Time;durP1;ratioP1;P1;durP2;ratioP2;P2;SDS_P1;SDS_P2;PMS_P1;PMS_P2;Temp;Humidity;BMP_temperature;BMP_pressure;BME280_temperature;BME280_humidity;BME280_pressure;Samples;Min_cycle;Max_cycle;Signal;HPM_P1;HPM_P2
2021/12/01 00:04:04;;;;;;;0.00;0.00;;;;;;;3.37;100.00;100113.34;10387412;28;20048;-65
2021/12/01 00:09:04;;;;;;;0.00;0.00;;;;;;;3.39;100.00;100099.09;10391608;28;20057;-66
2021/12/01 00:14:05;;;;;;;0.00;0.00;;;;;;;3.43;100.00;100078.59;10392449;28;20443;-66
2021/12/01 00:19:05;;;;;;;0.00;0.00;;;;;;;3.46;100.00;100065.19;10394363;28;20013;-66
2021/12/01 00:24:05;;;;;;;0.00;0.00;;;;;;;3.48;100.00;100034.28;10399877;28;20515;-66
2021/12/01 00:29:06;;;;;;;0.00;0.00;;;;;;;3.50;100.00;100032.34;10393750;28;20404;-66
2021/12/01 00:34:06;;;;;;;0.00;0.00;;;;;;;3.49;100.00;100022.78;10394817;28;20608;-65
2021/12/01 00:39:06;;;;;;;0.00;0.00;;;;;;;3.48;100.00;100013.22;10378003;28;20397;-66
2021/12/01 00:44:09;;;;;;;0.00;0.00;;;;;;;3.51;100.00;99999.78;10394057;28;20271;-66
2021/12/01 00:49:09;;;;;;;0.00;0.00;;;;;;;3.52;100.00;99974.28;10390968;28;20096;-66
2021/12/01 00:54:10;;;;;;;0.00;0.00;;;;;;;3.54;100.00;99957.38;10369482;28;20108;-66
2021/12/01 00:59:10;;;;;;;0.00;0.00;;;;;;;3.55;100.00;99945.91;10382665;28;20065;-67
2021/12/01 01:04:12;;;;;;;0.00;0.00;;;;;;;3.59;100.00;99934.13;10386797;28;20432;-67
2021/12/01 01:09:12;;;;;;;0.00;0.00;;;;;;;3.61;100.00;99926.09;10386974;28;20041;-66
2021/12/01 01:19:31;;;;;;;0.00;0.00;;;;;;;3.73;100.00;99903.91;10428185;22;20475;-69
2021/12/01 01:24:31;;;;;;;0.00;0.00;;;;;;;3.76;100.00;99893.09;10412541;28;20029;-69
2021/12/01 01:29:36;;;;;;;0.00;0.00;;;;;;;3.78;100.00;99869.25;10403871;28;20280;-69
2021/12/01 01:34:36;;;;;;;0.00;0.00;;;;;;;3.78;100.00;99850.81;10405981;28;20029;-69
2021/12/01 01:39:36;;;;;;;0.00;0.00;;;;;;;3.79;100.00;99834.88;10406249;28;20017;-69
2021/12/01 01:44:37;;;;;;;0.00;0.00;;;;;;;3.82;100.00;99815.34;10413834;28;20808;-69
2021/12/01 01:54:58;;;;;;;0.00;0.00;;;;;;;3.89;100.00;99828.75;10413598;28;20258;-69
2021/12/01 01:59:58;;;;;;;0.00;0.00;;;;;;;3.92;100.00;99807.41;10453730;28;20017;-69
2021/12/01 02:04:58;;;;;;;0.00;0.00;;;;;;;3.93;100.00;99796.75;10454507;28;20035;-69
2021/12/01 02:09:59;;;;;;;0.00;0.00;;;;;;;3.95;100.00;99781.59;10437478;28;20021;-69
2021/12/01 02:15:00;;;;;;;0.00;0.00;;;;;;;3.99;100.00;99763.72;10445093;28;20025;-69
2021/12/01 02:20:01;;;;;;;0.00;0.00;;;;;;;4.01;100.00;99744.13;10411919;28;20268;-68
2021/12/01 02:25:01;;;;;;;0.00;0.00;;;;;;;4.04;100.00;99733.34;10412244;28;20108;-68
2021/12/01 02:30:02;;;;;;;0.00;0.00;;;;;;;4.08;100.00;99708.34;10415235;28;20020;-68
2021/12/01 02:35:03;;;;;;;0.00;0.00;;;;;;;4.13;100.00;99688.63;10411631;28;20168;-69
2021/12/01 02:40:05;;;;;;;0.00;0.00;;;;;;;4.18;100.00;99666.13;10411714;28;20024;-68
2021/12/01 02:45:06;;;;;;;0.00;0.00;;;;;;;4.23;100.00;99647.25;10411407;28;20017;-68
2021/12/01 02:50:06;;;;;;;0.00;0.00;;;;;;;4.26;100.00;99631.13;10410394;28;20384;-68
2021/12/01 02:55:10;;;;;;;0.00;0.00;;;;;;;4.31;100.00;99613.06;10410896;28;20021;-68
2021/12/01 03:00:11;;;;;;;0.00;0.00;;;;;;;4.36;100.00;99608.16;10411550;28;20014;-68
2021/12/01 03:05:12;;;;;;;0.00;0.00;;;;;;;4.40;100.00;99587.63;10418277;28;20025;-68
2021/12/01 03:10:13;;;;;;;0.00;0.00;;;;;;;4.41;100.00;99566.38;10410140;28;20021;-68
2021/12/01 03:15:17;;;;;;;0.00;0.00;;;;;;;4.45;100.00;99553.72;10408694;28;20025;-68
2021/12/01 03:20:20;;;;;;;0.00;0.00;;;;;;;4.50;100.00;99541.72;10409353;28;20091;-68
2021/12/01 03:25:22;;;;;;;0.00;0.00;;;;;;;4.54;100.00;99519.38;10409390;28;20028;-68
2021/12/01 03:30:22;;;;;;;0.00;0.00;;;;;;;4.60;100.00;99503.91;10408961;28;20484;-68
2021/12/01 03:35:23;;;;;;;0.00;0.00;;;;;;;4.68;100.00;99482.84;10409191;28;20063;-69
2021/12/01 03:40:24;;;;;;;0.00;0.00;;;;;;;4.71;100.00;99477.28;10424612;28;20165;-70
2021/12/01 03:45:25;;;;;;;0.00;0.00;;;;;;;4.70;100.00;99457.97;10439510;28;20741;-70
2021/12/01 03:50:25;;;;;;;0.00;0.00;;;;;;;4.68;100.00;99446.78;10442618;28;20013;-70
2021/12/01 03:55:25;;;;;;;0.00;0.00;;;;;;;4.70;100.00;99428.16;10449361;28;20021;-69
2021/12/01 04:00:26;;;;;;;0.00;0.00;;;;;;;4.74;100.00;99403.09;10449301;28;20032;-69
2021/12/01 04:05:27;;;;;;;0.00;0.00;;;;;;;4.76;100.00;99385.31;10448702;28;20252;-69
2021/12/01 04:10:29;;;;;;;0.00;0.00;;;;;;;4.81;100.00;99366.38;10430940;28;20086;-69
2021/12/01 04:15:30;;;;;;;0.00;0.00;;;;;;;4.84;100.00;99347.59;10437721;28;20100;-68
2021/12/01 04:20:30;;;;;;;0.00;0.00;;;;;;;4.89;100.00;99332.97;10415033;28;20124;-69
2021/12/01 04:25:31;;;;;;;0.05;0.05;;;;;;;4.94;100.00;99311.34;10416099;28;20074;-69
2021/12/01 04:30:31;;;;;;;0.00;0.00;;;;;;;4.98;100.00;99296.88;10448842;28;20074;-69
2021/12/01 04:35:33;;;;;;;0.00;0.00;;;;;;;5.04;100.00;99279.56;10448521;28;20021;-69
2021/12/01 04:40:39;;;;;;;0.00;0.00;;;;;;;5.07;100.00;99268.69;10447794;28;20017;-69
2021/12/01 04:45:42;;;;;;;0.00;0.00;;;;;;;5.12;100.00;99247.88;10423556;28;20025;-69
2021/12/01 04:50:43;;;;;;;0.00;0.00;;;;;;;5.17;100.00;99227.13;10393309;28;20032;-69
2021/12/01 04:55:44;;;;;;;0.00;0.00;;;;;;;5.20;100.00;99210.94;10425705;28;20412;-69
2021/12/01 05:00:44;;;;;;;0.00;0.00;;;;;;;5.26;100.00;99191.81;10405730;28;20444;-69
2021/12/01 05:05:44;;;;;;;0.00;0.00;;;;;;;5.35;100.00;99177.66;10406034;28;20017;-69
2021/12/01 05:10:45;;;;;;;0.00;0.00;;;;;;;5.47;100.00;99156.16;10405519;28;20033;-69
2021/12/01 05:15:45;;;;;;;0.00;0.00;;;;;;;5.56;100.00;99149.91;10403601;28;20029;-69
2021/12/01 05:20:45;;;;;;;0.00;0.00;;;;;;;5.63;100.00;99133.19;10405632;28;20475;-69
2021/12/01 05:25:47;;;;;;;0.00;0.00;;;;;;;5.69;100.00;99118.47;10405752;28;20333;-69
2021/12/01 05:30:48;;;;;;;0.00;0.00;;;;;;;5.77;100.00;99107.91;10443533;28;20663;-69
2021/12/01 05:35:48;;;;;;;0.00;0.00;;;;;;;5.85;100.00;99094.66;10446125;28;20029;-69
2021/12/01 05:40:50;;;;;;;0.00;0.00;;;;;;;5.96;100.00;99068.88;10445697;28;20096;-69
2021/12/01 05:45:50;;;;;;;0.00;0.00;;;;;;;6.03;100.00;99059.28;10409570;28;20032;-69
2021/12/01 05:50:51;;;;;;;0.03;0.03;;;;;;;6.10;100.00;99047.00;10424638;28;20020;-69
2021/12/01 05:55:52;;;;;;;0.00;0.00;;;;;;;6.19;100.00;99021.34;10445666;28;20085;-69
2021/12/01 06:00:52;;;;;;;0.00;0.00;;;;;;;6.39;100.00;99004.00;10445010;28;20075;-69
2021/12/01 06:05:52;;;;;;;0.00;0.00;;;;;;;6.55;100.00;98982.72;10411732;28;20394;-69
2021/12/01 06:10:53;;;;;;;0.00;0.00;;;;;;;6.74;100.00;98960.22;10403504;28;20623;-69
2021/12/01 06:15:53;;;;;;;0.00;0.00;;;;;;;6.93;100.00;98953.59;10402308;28;20048;-69
2021/12/01 06:20:55;;;;;;;0.00;0.00;;;;;;;7.03;100.00;98927.66;10386265;28;20384;-68
2021/12/01 06:25:56;;;;;;;0.00;0.00;;;;;;;7.19;100.00;98928.50;10404942;28;20284;-68
2021/12/01 06:30:56;;;;;;;0.00;0.00;;;;;;;7.29;100.00;98902.56;10415163;28;20131;-69
2021/12/01 06:35:57;;;;;;;0.03;0.03;;;;;;;7.39;100.00;98899.63;10452237;28;20108;-69
2021/12/01 06:40:57;;;;;;;0.00;0.00;;;;;;;7.44;100.00;98862.78;10453248;28;20500;-69
2021/12/01 06:45:57;;;;;;;0.00;0.00;;;;;;;7.50;100.00;98872.63;10432560;28;20036;-69
2021/12/01 06:50:58;;;;;;;0.00;0.00;;;;;;;7.56;100.00;98855.97;10394235;28;20022;-69
2021/12/01 06:55:58;;;;;;;0.10;0.10;;;;;;;7.62;100.00;98860.56;10411421;28;20029;-68
2021/12/01 07:00:59;;;;;;;0.00;0.00;;;;;;;7.65;100.00;98846.94;10409416;28;20021;-69
2021/12/01 07:05:59;;;;;;;0.00;0.00;;;;;;;7.66;100.00;98847.75;10439274;28;20134;-68
2021/12/01 07:11:00;;;;;;;0.10;0.10;;;;;;;7.67;100.00;98828.19;10451823;28;20475;-69
2021/12/01 07:21:06;;;;;;;0.00;0.00;;;;;;;7.65;100.00;98809.00;10413672;28;20178;-69
2021/12/01 07:26:07;;;;;;;0.00;0.00;;;;;;;7.61;100.00;98776.75;10360158;28;20448;-68
2021/12/01 07:31:07;;;;;;;0.00;0.00;;;;;;;7.58;100.00;98793.03;10331516;28;20101;-68
2021/12/01 07:36:08;;;;;;;0.00;0.00;;;;;;;7.55;100.00;98789.97;10332266;28;20026;-69
2021/12/01 07:41:08;;;;;;;0.00;0.00;;;;;;;7.53;100.00;98776.88;10312727;28;20014;-69
2021/12/01 07:46:09;;;;;;;0.00;0.00;;;;;;;7.55;100.00;98768.75;10337214;28;20026;-69
2021/12/01 07:51:09;;;;;;;0.00;0.00;;;;;;;7.54;100.00;98757.34;10330873;28;20118;-68
2021/12/01 07:56:10;;;;;;;0.00;0.00;;;;;;;7.51;100.00;98749.78;10331275;28;20038;-69
2021/12/01 08:01:10;;;;;;;0.00;0.00;;;;;;;7.47;100.00;98744.03;10313218;28;20397;-69
2021/12/01 08:06:10;;;;;;;0.00;0.00;;;;;;;7.46;100.00;98734.44;10330596;28;20266;-69
2021/12/01 08:11:11;;;;;;;0.00;0.00;;;;;;;7.45;100.00;98735.47;10330456;28;20324;-70
2021/12/01 08:16:11;;;;;;;0.10;0.10;;;;;;;7.46;100.00;98702.66;10336158;28;20030;-69
2021/12/01 08:21:12;;;;;;;0.00;0.00;;;;;;;7.45;100.00;98713.47;10330194;28;20294;-69
2021/12/01 08:26:12;;;;;;;0.00;0.00;;;;;;;7.42;100.00;98687.34;10330031;28;20121;-69
2021/12/01 08:31:13;;;;;;;0.00;0.00;;;;;;;7.42;100.00;98672.28;10329308;28;20018;-69
2021/12/01 08:36:15;;;;;;;0.00;0.00;;;;;;;7.42;100.00;98655.56;10329796;28;20783;-70
2021/12/01 08:41:15;;;;;;;0.00;0.00;;;;;;;7.41;100.00;98648.63;10329288;28;20045;-69
2021/12/01 08:46:16;;;;;;;0.00;0.00;;;;;;;7.38;100.00;98643.72;10328911;28;20027;-69
2021/12/01 08:51:16;;;;;;;0.00;0.00;;;;;;;7.40;100.00;98647.81;10328276;28;20031;-71
2021/12/01 08:56:17;;;;;;;0.00;0.00;;;;;;;7.42;100.00;98629.91;10329052;28;20049;-71
2021/12/01 09:01:17;;;;;;;0.10;0.10;;;;;;;7.41;100.00;98622.94;10328719;28;20026;-71
2021/12/01 09:06:17;;;;;;;0.00;0.00;;;;;;;7.37;100.00;98620.88;10328772;28;20026;-70
2021/12/01 09:11:18;;;;;;;0.07;0.07;;;;;;;7.33;100.00;98606.38;10328527;28;20023;-70
2021/12/01 09:16:21;;;;;;;0.00;0.00;;;;;;;7.31;100.00;98611.06;10328475;28;20348;-70
2021/12/01 09:21:21;;;;;;;0.00;0.00;;;;;;;7.30;100.00;98588.22;10328328;28;20293;-70
2021/12/01 09:26:21;;;;;;;0.00;0.00;;;;;;;7.30;100.00;98598.81;10328961;28;20576;-69
2021/12/01 09:31:22;;;;;;;0.00;0.00;;;;;;;7.32;100.00;98583.56;10310678;28;20277;-70
2021/12/01 09:36:23;;;;;;;0.08;0.08;;;;;;;7.39;100.00;98571.19;10328144;28;20651;-69
2021/12/01 09:41:24;;;;;;;0.00;0.00;;;;;;;7.41;100.00;98563.84;10328381;28;20469;-70
2021/12/01 09:46:29;;;;;;;0.00;0.00;;;;;;;7.41;100.00;98543.47;10310970;28;20022;-70
2021/12/01 09:51:30;;;;;;;0.10;0.10;;;;;;;7.44;100.00;98523.75;10310121;28;20026;-71
2021/12/01 09:56:31;;;;;;;0.00;0.00;;;;;;;7.39;100.00;98500.50;10346833;28;20473;-72
2021/12/01 10:01:32;;;;;;;0.10;0.10;;;;;;;7.48;100.00;98485.28;10372718;28;20017;-71
2021/12/01 10:06:33;;;;;;;0.00;0.00;;;;;;;7.57;100.00;98481.44;10375537;28;20029;-69
2021/12/01 10:11:36;;;;;;;0.10;0.10;;;;;;;7.54;100.00;98463.28;10375550;28;20034;-69
2021/12/01 10:16:40;;;;;;;0.05;0.05;;;;;;;7.49;100.00;98453.28;10375519;28;20464;-70
2021/12/01 10:21:51;;;;;;;0.10;0.10;;;;;;;7.52;100.00;98444.13;10375402;28;20489;-71
2021/12/01 10:26:54;;;;;;;0.00;0.00;;;;;;;7.55;100.00;98427.81;10375410;28;20029;-70
2021/12/01 10:32:01;;;;;;;0.10;0.10;;;;;;;7.59;100.00;98407.03;10366974;28;20026;-70
2021/12/01 10:37:23;;;;;;;0.00;0.00;;;;;;;7.58;100.00;98387.69;10317478;28;20442;-72
2021/12/01 10:42:23;;;;;;;0.00;0.00;;;;;;;7.55;100.00;98380.16;10316767;28;20113;-70
2021/12/01 10:47:23;;;;;;;0.00;0.00;;;;;;;7.57;100.00;98362.22;10334306;28;20088;-69
2021/12/01 10:52:27;;;;;;;0.00;0.00;;;;;;;7.59;100.00;98348.75;10316281;28;20030;-74
2021/12/01 10:57:27;;;;;;;0.00;0.00;;;;;;;7.54;100.00;98330.84;10333320;28;20036;-70
2021/12/01 11:02:34;;;;;;;0.00;0.00;;;;;;;7.53;100.00;98329.19;10340658;28;20019;-70
2021/12/01 11:07:34;;;;;;;0.00;0.00;;;;;;;7.57;100.00;98303.94;10333123;28;20469;-69
2021/12/01 11:12:35;;;;;;;0.00;0.00;;;;;;;7.77;100.00;98287.25;10333190;28;20010;-70
2021/12/01 11:17:39;;;;;;;0.00;0.00;;;;;;;7.79;100.00;98269.31;10332352;28;20531;-70
2021/12/01 11:22:39;;;;;;;0.00;0.00;;;;;;;7.74;100.00;98264.63;10332770;28;20026;-69
2021/12/01 11:27:39;;;;;;;0.00;0.00;;;;;;;7.77;100.00;98245.69;10331892;28;20026;-70
2021/12/01 11:32:40;;;;;;;0.00;0.00;;;;;;;7.76;100.00;98241.38;10339367;28;20065;-70
2021/12/01 11:37:41;;;;;;;0.00;0.00;;;;;;;7.76;100.00;98256.47;10314333;28;20113;-70
2021/12/01 11:42:41;;;;;;;0.00;0.00;;;;;;;7.76;100.00;98233.44;10331933;28;20110;-70
2021/12/01 11:47:47;;;;;;;0.00;0.00;;;;;;;7.85;100.00;98220.78;10331310;28;20553;-70
2021/12/01 11:53:06;;;;;;;0.00;0.00;;;;;;;7.95;100.00;98200.00;10331579;28;20044;-70
2021/12/01 11:58:06;;;;;;;0.00;0.00;;;;;;;8.01;100.00;98199.16;10331028;28;20022;-71
2021/12/01 12:03:26;;;;;;;0.00;0.00;;;;;;;8.13;99.81;98170.97;10347477;28;20030;-71
2021/12/01 12:08:54;;;;;;;0.00;0.00;;;;;;;8.32;99.37;98189.69;10371155;28;20155;-69
2021/12/01 12:14:00;;;;;;;0.00;0.00;;;;;;;8.36;97.52;98159.09;10371224;28;20195;-69
2021/12/01 12:19:01;;;;;;;0.05;0.05;;;;;;;8.34;97.91;98163.78;10352885;28;20021;-69
2021/12/01 12:24:06;;;;;;;0.10;0.10;;;;;;;8.35;96.96;98146.88;10368698;28;20117;-70
2021/12/01 12:29:13;;;;;;;0.00;0.00;;;;;;;8.33;97.26;98148.91;10369985;28;20544;-70
2021/12/01 12:34:22;;;;;;;0.10;0.10;;;;;;;8.36;95.38;98117.47;10351190;28;20034;-70
2021/12/01 12:39:32;;;;;;;0.10;0.10;;;;;;;8.38;93.77;98101.34;10369724;28;20049;-71
2021/12/01 12:44:34;;;;;;;0.00;0.00;;;;;;;8.34;93.54;98094.81;10352435;28;20034;-71
2021/12/01 12:49:55;;;;;;;0.10;0.10;;;;;;;8.30;93.47;98096.28;10352039;28;20466;-69
2021/12/01 12:55:10;;;;;;;0.00;0.00;;;;;;;8.29;93.27;98084.03;10369704;28;20108;-70
2021/12/01 13:00:30;;;;;;;0.10;0.10;;;;;;;8.35;90.71;98067.28;10369727;28;20030;-70
2021/12/01 13:05:36;;;;;;;0.00;0.00;;;;;;;8.35;91.13;98078.72;10331779;28;20165;-69
2021/12/01 13:10:40;;;;;;;0.10;0.10;;;;;;;8.29;91.69;98054.84;10310929;28;20517;-69
2021/12/01 13:15:45;;;;;;;0.00;0.00;;;;;;;8.23;90.90;98045.09;10328887;28;20026;-70
2021/12/01 13:20:58;;;;;;;0.10;0.10;;;;;;;8.22;91.25;98040.84;10406465;23;20078;-68
2021/12/01 13:26:09;;;;;;;0.00;0.00;;;;;;;8.30;90.38;98040.59;10369054;28;20380;-67
2021/12/01 13:31:20;;;;;;;0.00;0.00;;;;;;;8.35;89.22;98014.25;10375477;28;20029;-67
2021/12/01 13:36:22;;;;;;;0.10;0.10;;;;;;;8.35;85.98;98019.56;10370194;28;20025;-67
2021/12/01 13:41:23;;;;;;;0.00;0.00;;;;;;;8.37;87.68;97998.91;10376119;28;20021;-68
2021/12/01 13:46:26;;;;;;;0.00;0.00;;;;;;;8.31;87.22;97999.78;10376476;28;20049;-68
2021/12/01 13:51:32;;;;;;;0.00;0.00;;;;;;;8.19;89.82;98028.81;10375837;28;20017;-68
2021/12/01 13:56:32;;;;;;;0.00;0.00;;;;;;;8.04;92.01;98031.72;10376175;28;20021;-68
2021/12/01 14:01:35;;;;;;;0.00;0.00;;;;;;;7.88;93.92;98058.69;10383098;28;20020;-68
2021/12/01 14:06:40;;;;;;;0.10;0.10;;;;;;;7.73;88.86;98037.75;10375504;28;20026;-68
2021/12/01 14:11:45;;;;;;;0.10;0.10;;;;;;;7.65;84.28;98020.28;10375359;28;20014;-68
2021/12/01 14:16:49;;;;;;;0.00;0.00;;;;;;;7.53;83.99;98005.22;10375314;28;20034;-67
2021/12/01 14:21:49;;;;;;;0.10;0.10;;;;;;;7.46;85.73;97995.47;10375736;28;20098;-68
2021/12/01 14:26:54;;;;;;;0.10;0.10;;;;;;;7.37;87.49;98001.19;10375054;28;20040;-67
2021/12/01 14:31:56;;;;;;;;;;;;;;;7.25;87.11;97988.59;10381840;28;20057;-68
2021/12/01 14:36:57;;;;;;;0.00;0.00;;;;;;;7.15;88.36;98003.28;10375137;28;19975;-68
2021/12/01 14:41:59;;;;;;;0.00;0.00;;;;;;;6.87;91.99;98014.09;10356336;28;20021;-67
2021/12/01 14:47:06;;;;;;;0.00;0.00;;;;;;;6.61;94.84;98006.97;10375331;28;20018;-68
2021/12/01 14:52:09;;;;;;;0.00;0.00;;;;;;;6.50;94.60;98003.09;10356205;28;20052;-69
2021/12/01 14:57:12;;;;;;;0.00;0.00;;;;;;;6.52;90.91;98003.72;10373889;28;20030;-68
2021/12/01 15:02:25;;;;;;;0.00;0.00;;;;;;;6.54;90.75;97991.06;10380853;28;20030;-68
2021/12/01 15:07:25;;;;;;;0.00;0.00;;;;;;;6.51;89.63;97981.72;10355073;28;20026;-68
2021/12/01 15:12:30;;;;;;;0.00;0.00;;;;;;;6.43;90.54;97989.03;10373510;28;20026;-68
2021/12/01 15:17:30;;;;;;;;;;;;;;;6.33;91.08;97989.44;10373606;28;20461;-68
2021/12/01 15:22:30;;;;;;;0.00;0.00;;;;;;;6.25;90.24;97971.13;10373127;28;20326;-68
2021/12/01 15:27:31;;;;;;;0.00;0.00;;;;;;;6.24;90.70;97988.00;10372348;28;20034;-68
2021/12/01 15:32:32;;;;;;;0.00;0.00;;;;;;;6.17;91.54;97973.94;10362217;28;20528;-68
2021/12/01 15:37:33;;;;;;;0.00;0.00;;;;;;;6.12;92.09;97995.69;10371832;28;20100;-68
2021/12/01 15:42:34;;;;;;;0.00;0.00;;;;;;;6.07;91.97;97984.91;10372544;28;20026;-68
2021/12/01 15:47:35;;;;;;;0.00;0.00;;;;;;;6.04;92.16;97980.03;10354099;28;20435;-68
2021/12/01 15:52:35;;;;;;;0.00;0.00;;;;;;;5.98;91.67;97986.09;10371619;28;20401;-68
2021/12/01 15:57:36;;;;;;;0.10;0.10;;;;;;;5.95;91.52;97947.69;10370765;28;20041;-68
2021/12/01 16:02:37;;;;;;;0.00;0.00;;;;;;;5.89;91.09;97925.50;10378192;28;20025;-69
2021/12/01 16:07:37;;;;;;;0.00;0.00;;;;;;;5.84;91.86;97956.16;10370620;28;20485;-68
2021/12/01 16:12:37;;;;;;;0.00;0.00;;;;;;;5.82;92.07;97942.34;10371026;28;20759;-68
2021/12/01 16:17:39;;;;;;;0.00;0.00;;;;;;;5.80;91.57;97963.66;10370321;28;20065;-68
2021/12/01 16:22:44;;;;;;;0.00;0.00;;;;;;;5.81;91.56;97936.22;10370716;28;20018;-68
2021/12/01 16:27:45;;;;;;;0.10;0.10;;;;;;;5.79;91.60;97948.00;10369928;28;20026;-68
2021/12/01 16:32:50;;;;;;;0.00;0.00;;;;;;;5.74;91.76;97939.88;10359873;28;20399;-68
2021/12/01 16:37:54;;;;;;;0.00;0.00;;;;;;;5.65;92.76;97947.16;10369664;28;20484;-68
2021/12/01 16:42:54;;;;;;;0.00;0.00;;;;;;;5.62;93.28;97952.84;10352382;28;20029;-68
2021/12/01 16:47:55;;;;;;;0.00;0.00;;;;;;;5.60;92.24;97931.09;10369457;28;20128;-68
2021/12/01 16:52:56;;;;;;;0.00;0.00;;;;;;;5.55;93.17;97950.16;10352051;28;20034;-68
2021/12/01 16:57:57;;;;;;;0.05;0.05;;;;;;;5.50;92.76;97939.41;10368841;28;20029;-68
2021/12/01 17:03:03;;;;;;;0.00;0.00;;;;;;;5.44;92.96;97917.25;10376383;28;20056;-68
2021/12/01 17:13:07;;;;;;;0.00;0.00;;;;;;;5.35;93.71;97926.34;10386442;28;20022;-68
2021/12/01 17:18:08;;;;;;;0.00;0.00;;;;;;;5.33;94.18;97922.28;10368324;28;20042;-68
2021/12/01 17:23:09;;;;;;;0.00;0.00;;;;;;;5.30;93.26;97923.47;10368541;28;20485;-68
2021/12/01 17:28:10;;;;;;;0.00;0.00;;;;;;;5.27;94.49;97923.88;10367891;28;20025;-68
2021/12/01 17:33:10;;;;;;;0.00;0.00;;;;;;;5.18;94.21;97911.84;10368891;28;20038;-68
2021/12/01 17:38:11;;;;;;;0.00;0.00;;;;;;;5.19;93.89;97890.53;10368384;28;20087;-68
2021/12/01 17:43:11;;;;;;;0.00;0.00;;;;;;;5.13;94.80;97904.50;10368184;28;20538;-68
2021/12/01 17:48:12;;;;;;;0.00;0.00;;;;;;;5.11;95.51;97895.16;10367893;28;20014;-68
2021/12/01 17:53:12;;;;;;;0.00;0.00;;;;;;;5.02;97.27;97891.88;10368001;28;20032;-68
2021/12/01 17:58:13;;;;;;;0.00;0.00;;;;;;;4.96;98.41;97919.84;10367843;28;20042;-68
2021/12/01 18:03:13;;;;;;;0.00;0.00;;;;;;;4.90;99.21;97912.72;10349969;28;20061;-69
2021/12/01 18:08:13;;;;;;;0.00;0.00;;;;;;;4.84;100.00;97915.31;10366383;28;20137;-69
2021/12/01 18:13:14;;;;;;;0.00;0.00;;;;;;;4.81;100.00;97921.78;10370368;28;20034;-69
2021/12/01 18:18:15;;;;;;;0.00;0.00;;;;;;;4.79;100.00;97921.16;10366945;28;20030;-68
2021/12/01 18:23:19;;;;;;;0.00;0.00;;;;;;;4.84;98.33;97923.22;10353101;28;20052;-69
2021/12/01 18:28:20;;;;;;;0.00;0.00;;;;;;;4.87;97.46;97943.94;10357180;28;20026;-69
2021/12/01 18:33:20;;;;;;;0.00;0.00;;;;;;;4.84;97.62;97953.03;10376290;28;20541;-68
2021/12/01 18:38:21;;;;;;;0.00;0.00;;;;;;;4.81;96.56;97977.16;10374070;28;20473;-69
2021/12/01 18:43:21;;;;;;;0.00;0.00;;;;;;;4.75;95.69;97967.38;10373913;28;20109;-69
2021/12/01 18:48:22;;;;;;;0.00;0.00;;;;;;;4.70;96.03;97993.50;10373800;28;20017;-69
2021/12/01 18:53:22;;;;;;;0.00;0.00;;;;;;;4.60;95.39;97998.31;10373875;28;20033;-68
2021/12/01 18:58:22;;;;;;;0.00;0.00;;;;;;;4.52;95.17;98023.78;10373424;28;20117;-68
2021/12/01 19:03:24;;;;;;;0.00;0.00;;;;;;;4.41;95.13;98018.19;10374271;28;20104;-69
2021/12/01 19:08:25;;;;;;;0.00;0.00;;;;;;;4.32;95.41;98041.22;10372465;28;20276;-68
2021/12/01 19:13:25;;;;;;;0.00;0.00;;;;;;;4.20;96.20;98063.78;10373113;28;20049;-68
2021/12/01 19:18:26;;;;;;;0.00;0.00;;;;;;;4.08;97.01;98076.63;10408665;23;20049;-70
2021/12/01 19:23:26;;;;;;;0.00;0.00;;;;;;;3.96;96.49;98089.47;10432182;28;20026;-71
2021/12/01 19:28:26;;;;;;;0.00;0.00;;;;;;;3.85;98.25;98117.06;10381215;28;20308;-71
2021/12/01 19:33:28;;;;;;;0.00;0.00;;;;;;;3.73;98.57;98134.31;10355066;28;20116;-70
2021/12/01 19:38:28;;;;;;;0.00;0.00;;;;;;;3.55;97.67;98168.88;10371859;28;20037;-71
2021/12/01 19:43:29;;;;;;;0.00;0.00;;;;;;;3.38;99.22;98167.41;10393131;28;20380;-70
2021/12/01 19:48:31;;;;;;;0.00;0.00;;;;;;;3.19;97.86;98187.13;10394974;28;20612;-71
2021/12/01 19:53:32;;;;;;;0.00;0.00;;;;;;;2.99;99.26;98212.25;10412957;28;20034;-70
2021/12/01 19:58:33;;;;;;;0.00;0.00;;;;;;;2.85;99.17;98243.56;10411768;28;20416;-70
2021/12/01 20:03:33;;;;;;;0.00;0.00;;;;;;;2.69;99.86;98231.31;10412598;28;20031;-70
2021/12/01 20:08:36;;;;;;;0.00;0.00;;;;;;;2.49;100.00;98277.41;10411868;28;20021;-69
2021/12/01 20:13:37;;;;;;;0.00;0.00;;;;;;;2.30;100.00;98325.91;10408436;28;20272;-69
2021/12/01 20:18:39;;;;;;;0.00;0.00;;;;;;;2.16;100.00;98339.72;10409697;28;20472;-70
2021/12/01 20:23:41;;;;;;;0.00;0.00;;;;;;;2.08;100.00;98343.16;10411471;28;20101;-69
2021/12/01 20:28:43;;;;;;;0.00;0.00;;;;;;;2.07;100.00;98385.34;10409541;28;20021;-69
2021/12/01 20:33:45;;;;;;;0.00;0.00;;;;;;;2.02;100.00;98412.09;10411281;28;20029;-69
2021/12/01 20:38:48;;;;;;;0.00;0.00;;;;;;;2.00;100.00;98445.56;10410410;28;20057;-70
2021/12/01 20:43:50;;;;;;;0.08;0.08;;;;;;;1.91;100.00;98430.78;10407413;28;20033;-69
2021/12/01 20:54:18;;;;;;;0.00;0.00;;;;;;;1.85;100.00;98511.00;10410696;28;20045;-70
2021/12/01 21:04:24;;;;;;;0.00;0.00;;;;;;;1.83;100.00;98522.66;10410621;28;20468;-69
2021/12/01 21:14:26;;;;;;;0.00;0.00;;;;;;;1.89;100.00;98556.97;10410985;28;20028;-68
2021/12/01 21:19:29;;;;;;;0.00;0.00;;;;;;;2.01;99.96;98586.38;10409291;28;20307;-69
2021/12/01 21:24:33;;;;;;;0.00;0.00;;;;;;;2.04;99.18;98586.88;10409770;28;20036;-69
2021/12/01 21:29:36;;;;;;;0.00;0.00;;;;;;;2.11;99.02;98584.44;10409526;28;20075;-70
2021/12/01 21:34:46;;;;;;;0.03;0.03;;;;;;;2.13;98.08;98608.75;10409542;28;20083;-69
2021/12/01 21:39:48;;;;;;;0.00;0.00;;;;;;;2.20;97.40;98614.16;10409362;28;20384;-70
2021/12/01 21:44:50;;;;;;;0.00;0.00;;;;;;;2.31;97.05;98653.28;10409012;28;20496;-69
2021/12/01 21:49:51;;;;;;;0.00;0.00;;;;;;;2.42;95.93;98660.06;10407802;28;20021;-69
2021/12/01 21:54:54;;;;;;;0.00;0.00;;;;;;;2.51;94.02;98690.63;10409442;28;20033;-70
2021/12/01 21:59:56;;;;;;;0.00;0.00;;;;;;;2.49;93.31;98695.22;10414663;28;20030;-69
2021/12/01 22:04:57;;;;;;;0.00;0.00;;;;;;;2.54;93.90;98707.88;10417640;28;20026;-68
2021/12/01 22:09:57;;;;;;;0.00;0.00;;;;;;;2.58;92.81;98738.09;10417179;28;20021;-69
2021/12/01 22:14:57;;;;;;;0.00;0.00;;;;;;;2.61;90.03;98749.13;10417485;28;20197;-69
2021/12/01 22:19:59;;;;;;;0.00;0.00;;;;;;;2.70;86.74;98731.56;10417457;28;20094;-70
2021/12/01 22:25:02;;;;;;;0.00;0.00;;;;;;;2.74;86.35;98761.84;10417185;28;20109;-70
2021/12/01 22:30:07;;;;;;;0.00;0.00;;;;;;;2.74;86.09;98782.03;10416517;28;20071;-70
2021/12/01 22:35:08;;;;;;;0.00;0.00;;;;;;;2.75;85.04;98796.81;10398144;28;20033;-70
2021/12/01 22:40:15;;;;;;;0.00;0.00;;;;;;;2.76;85.19;98815.06;10415590;28;20518;-70
2021/12/01 22:45:16;;;;;;;0.00;0.00;;;;;;;2.77;85.67;98821.16;10397320;28;20032;-70
2021/12/01 22:50:17;;;;;;;0.00;0.00;;;;;;;2.79;85.20;98845.47;10415132;28;20040;-71
2021/12/01 22:55:19;;;;;;;0.00;0.00;;;;;;;2.78;84.05;98836.75;10415370;28;20033;-70
2021/12/01 23:00:25;;;;;;;0.00;0.00;;;;;;;2.80;83.16;98853.22;10414529;28;20028;-70
2021/12/01 23:05:26;;;;;;;0.00;0.00;;;;;;;2.78;82.62;98880.63;10414949;28;20087;-70
2021/12/01 23:10:28;;;;;;;0.00;0.00;;;;;;;2.76;82.07;98885.22;10413634;28;20030;-69
2021/12/01 23:15:29;;;;;;;0.08;0.08;;;;;;;2.78;81.07;98893.78;10392723;28;20556;-70
2021/12/01 23:20:29;;;;;;;0.00;0.00;;;;;;;2.78;81.14;98896.41;10413279;28;20337;-70
2021/12/01 23:30:49;;;;;;;0.10;0.10;;;;;;;2.71;83.18;98936.47;10414045;28;20057;-70
2021/12/01 23:35:49;;;;;;;0.00;0.00;;;;;;;2.71;83.82;98933.84;10413419;28;20045;-70
2021/12/01 23:40:50;;;;;;;0.00;0.00;;;;;;;2.68;83.50;98942.03;10413166;28;20096;-70
2021/12/01 23:51:17;;;;;;;0.00;0.00;;;;;;;2.62;84.74;98970.75;10412439;28;20100;-69
2021/12/01 23:56:18;;;;;;;0.00;0.00;;;;;;;2.59;84.22;98969.25;10412999;28;20025;-70
